Airfield :
LOGIN :

Register | Disclaimer

   EN    FR    IT 

 










Legend :    VFR   Marginal VFR   IFR   Intensive IFR   Very Intensive IFR
Visi :
Ceiling :
>= 8 km
>= 3000ft
5 to 8 km
1000 to 3000 ft
1500m to 5 km
500 to 1000 ft
800 to 1500m
200 to 500 ft
< 800m
< 200 ft
Symbols :   Thunderstorms  Fog  Heavy snow  Heavy precipitations  Wind > 20 kt
SIGMETs :     Misc.  Thunderstorms  Icing  Turbulence  Mountain Waves  Volcanic Ashes







- Airport Elevation : 778 ft
- IATA code : BRQ


LKTB - Brno-Turany

CURRENT METAR :
  • 250930Z 00000KT 9999 SCT026 SCT042 17/09 Q1020 NOSIG

EXPIRED METARs :
  • 250900Z 12003KT 080V150 9999 SCT026 16/09 Q1020 NOSIG
  • 250830Z 09004KT 060V130 9999 SCT029 16/10 Q1020 NOSIG
  • 250800Z 10003KT 050V130 9999 SCT026 BKN044 16/09 Q1020 NOSIG
  • 250730Z 34005KT 310V020 9999 SCT025 BKN035 15/09 Q1020 NOSIG
  • 250700Z 32004KT 270V020 9999 FEW023 BKN032 15/09 Q1020 NOSIG

TAF TAF LKTB
Valid from the 25 at 06:00 until the 26 at 12:00 UTC


250500Z 2506/2612 32006KT 9999 BKN030
TEMPO 2506/2508 7000 RA BKN020
TEMPO 2508/2519 -SHRA BKN027
PROB30
TEMPO 2509/2519 SCT023TCU
BECMG 2609/2611 07008KT
TEMPO 2608/2612 7000 SHRA SCT027TCU
No reported NOTAMs for that airfield.



MET'MAP, your aeronautical weather chart ! - Copyright ORBIFLY December 2007 - Disclaimer

ORBIFLY MET'MAP TEAM :

Programming & Development : Alexandra Zaïnal
Concept & Development : Baudouin d'Aumeries
Co-Development & Prog : Marc-Olivier Méhu
Technical & hardware support : Manuel Goepfert

Contact : metmap@orbifly.com




SOURCES & CREDITS :

   NOAA